createdAt,value
2018-05-31T00:00:03.444Z,1011.08
2018-05-31T00:00:44.007Z,1011.08
2018-05-31T00:01:24.576Z,1011.06
2018-05-31T00:02:05.133Z,1011.11
2018-05-31T00:02:45.712Z,1011.09
2018-05-31T00:03:26.270Z,1011.04
2018-05-31T00:04:06.872Z,1011.07
2018-05-31T00:04:47.449Z,1011.08
2018-05-31T00:05:28.019Z,1011.11
2018-05-31T00:06:08.604Z,1011.09
2018-05-31T00:06:49.155Z,1011.08
2018-05-31T00:07:29.714Z,1011.11
2018-05-31T00:08:10.279Z,1011.11
2018-05-31T00:08:50.847Z,1011.11
2018-05-31T00:09:31.401Z,1011.12
2018-05-31T00:10:11.976Z,1011.12
2018-05-31T00:10:55.365Z,1011.11
2018-05-31T00:11:35.928Z,1011.12
2018-05-31T00:12:16.488Z,1011.13
2018-05-31T00:12:57.054Z,1011.13
2018-05-31T00:13:37.615Z,1011.1
2018-05-31T00:14:18.207Z,1011.08
2018-05-31T00:14:58.754Z,1011.08
2018-05-31T00:15:39.308Z,1011.08
2018-05-31T00:16:19.911Z,1011.06
2018-05-31T00:17:00.476Z,1011.06
2018-05-31T00:17:41.054Z,1011.04
2018-05-31T00:18:21.628Z,1011.03
2018-05-31T00:19:02.184Z,1011.06
2018-05-31T00:19:42.801Z,1011.02
2018-05-31T00:20:23.307Z,1011.03
2018-05-31T00:21:03.884Z,1011.04
2018-05-31T00:21:44.445Z,1010.99
2018-05-31T00:22:25.004Z,1011
2018-05-31T00:23:05.557Z,1011.08
2018-05-31T00:23:46.222Z,1011.07
2018-05-31T00:24:26.797Z,1011.08
2018-05-31T00:25:07.375Z,1011.1
2018-05-31T00:25:47.922Z,1011.1
2018-05-31T00:26:28.485Z,1011.09
2018-05-31T00:27:09.047Z,1011.1
2018-05-31T00:27:49.629Z,1011.07
2018-05-31T00:28:30.191Z,1011.12
2018-05-31T00:29:10.776Z,1011.09
2018-05-31T00:29:51.336Z,1011.09
2018-05-31T00:30:31.909Z,1011.09
2018-05-31T00:31:12.501Z,1011.07
2018-05-31T00:31:53.073Z,1011.08
2018-05-31T00:32:33.639Z,1011.11
2018-05-31T00:33:14.195Z,1011.06
2018-05-31T00:33:54.755Z,1011.03
2018-05-31T00:34:35.313Z,1011.08
2018-05-31T00:35:15.872Z,1011.07
2018-05-31T00:35:56.498Z,1011.01
2018-05-31T00:36:37.064Z,1011.01
2018-05-31T00:37:17.607Z,1010.99
2018-05-31T00:37:58.171Z,1011
2018-05-31T00:38:38.720Z,1010.98
2018-05-31T00:39:19.277Z,1010.94
2018-05-31T00:39:59.835Z,1010.95
2018-05-31T00:40:40.411Z,1010.95
2018-05-31T00:41:20.984Z,1010.94
2018-05-31T00:42:01.570Z,1010.88
2018-05-31T00:42:42.132Z,1010.9
2018-05-31T00:43:22.679Z,1010.92
2018-05-31T00:44:03.225Z,1010.9
2018-05-31T00:44:43.768Z,1010.89
2018-05-31T00:45:24.329Z,1010.92
2018-05-31T00:46:04.890Z,1010.92
2018-05-31T00:46:45.477Z,1010.86
2018-05-31T00:47:26.070Z,1010.87
2018-05-31T00:48:06.641Z,1010.89
2018-05-31T00:48:47.185Z,1010.9
2018-05-31T00:49:27.747Z,1010.92
2018-05-31T00:50:08.330Z,1010.87
2018-05-31T00:50:48.897Z,1010.82
2018-05-31T00:51:29.477Z,1010.87
2018-05-31T00:52:10.027Z,1010.84
2018-05-31T00:52:50.589Z,1010.85
2018-05-31T00:53:31.189Z,1010.81
2018-05-31T00:54:11.753Z,1010.78
2018-05-31T00:54:52.340Z,1010.81
2018-05-31T00:55:32.895Z,1010.77
2018-05-31T00:56:13.463Z,1010.78
2018-05-31T00:56:54.042Z,1010.75
2018-05-31T00:57:34.597Z,1010.74
2018-05-31T00:58:15.156Z,1010.75
2018-05-31T00:58:55.726Z,1010.75
2018-05-31T00:59:36.288Z,1010.75
2018-05-31T01:00:16.853Z,1010.72
2018-05-31T01:00:57.405Z,1010.71
2018-05-31T01:01:37.954Z,1010.74
2018-05-31T01:02:18.513Z,1010.72
2018-05-31T01:02:59.054Z,1010.72
2018-05-31T01:03:39.625Z,1010.7
2018-05-31T01:04:20.201Z,1010.71
2018-05-31T01:05:00.786Z,1010.69
2018-05-31T01:05:41.330Z,1010.67
2018-05-31T01:06:21.898Z,1010.61
2018-05-31T01:07:02.450Z,1010.64
2018-05-31T01:07:43.006Z,1010.61
2018-05-31T01:08:23.555Z,1010.6
2018-05-31T01:09:04.116Z,1010.6
2018-05-31T01:09:44.693Z,1010.59
2018-05-31T01:10:25.263Z,1010.59
2018-05-31T01:11:05.815Z,1010.54
2018-05-31T01:11:46.365Z,1010.55
2018-05-31T01:12:26.932Z,1010.56
2018-05-31T01:13:07.502Z,1010.56
2018-05-31T01:13:48.056Z,1010.54
2018-05-31T01:14:28.612Z,1010.55
2018-05-31T01:15:09.160Z,1010.57
2018-05-31T01:15:49.712Z,1010.54
2018-05-31T01:16:30.254Z,1010.55
2018-05-31T01:17:10.809Z,1010.56
2018-05-31T01:17:51.361Z,1010.54
2018-05-31T01:18:31.940Z,1010.56
2018-05-31T01:19:12.508Z,1010.55
2018-05-31T01:19:53.090Z,1010.52
2018-05-31T01:20:33.673Z,1010.53
2018-05-31T01:21:14.244Z,1010.53
2018-05-31T01:21:54.877Z,1010.48
2018-05-31T01:22:35.392Z,1010.49
2018-05-31T01:23:15.945Z,1010.53
2018-05-31T01:23:56.500Z,1010.5
2018-05-31T01:24:37.066Z,1010.51
2018-05-31T01:25:17.622Z,1010.5
2018-05-31T01:25:58.200Z,1010.48
2018-05-31T01:26:38.748Z,1010.45
2018-05-31T01:27:19.315Z,1010.46
2018-05-31T01:27:59.935Z,1010.48
2018-05-31T01:28:40.471Z,1010.5
2018-05-31T01:29:21.030Z,1010.45
2018-05-31T01:30:01.612Z,1010.47
2018-05-31T01:30:42.179Z,1010.47
2018-05-31T01:31:22.743Z,1010.48
2018-05-31T01:32:03.359Z,1010.48
2018-05-31T01:32:43.884Z,1010.47
2018-05-31T01:33:24.466Z,1010.49
2018-05-31T01:34:05.040Z,1010.5
2018-05-31T01:34:45.590Z,1010.51
2018-05-31T01:35:26.153Z,1010.5
2018-05-31T01:36:06.717Z,1010.49
2018-05-31T01:36:47.291Z,1010.49
2018-05-31T01:37:27.862Z,1010.51
2018-05-31T01:38:08.434Z,1010.48
2018-05-31T01:38:49.005Z,1010.5
2018-05-31T01:39:29.577Z,1010.48
2018-05-31T01:40:10.152Z,1010.47
2018-05-31T01:40:50.706Z,1010.47
2018-05-31T01:41:31.282Z,1010.43
2018-05-31T01:42:11.838Z,1010.48
2018-05-31T01:42:52.390Z,1010.48
2018-05-31T01:43:32.951Z,1010.47
2018-05-31T01:44:13.507Z,1010.47
2018-05-31T01:44:54.068Z,1010.48
2018-05-31T01:45:34.617Z,1010.46
2018-05-31T01:46:15.196Z,1010.45
2018-05-31T01:46:55.755Z,1010.46
2018-05-31T01:47:36.321Z,1010.46
2018-05-31T01:48:16.889Z,1010.47
2018-05-31T01:48:57.461Z,1010.43
2018-05-31T01:49:38.018Z,1010.44
2018-05-31T01:50:18.586Z,1010.42
2018-05-31T01:50:59.152Z,1010.4
2018-05-31T01:51:39.711Z,1010.39
2018-05-31T01:52:20.274Z,1010.37
2018-05-31T01:53:00.845Z,1010.37
2018-05-31T01:53:41.441Z,1010.37
2018-05-31T01:54:22.004Z,1010.37
2018-05-31T01:55:02.572Z,1010.37
2018-05-31T01:55:43.142Z,1010.33
2018-05-31T01:56:23.706Z,1010.36
2018-05-31T01:57:04.277Z,1010.33
2018-05-31T01:57:44.848Z,1010.3
2018-05-31T01:58:25.411Z,1010.33
2018-05-31T01:59:05.973Z,1010.32
2018-05-31T01:59:46.545Z,1010.34
2018-05-31T02:00:27.123Z,1010.29
2018-05-31T02:01:07.676Z,1010.32
2018-05-31T02:01:48.265Z,1010.32
2018-05-31T02:02:28.806Z,1010.29
2018-05-31T02:03:09.374Z,1010.32
2018-05-31T02:03:49.930Z,1010.33
2018-05-31T02:04:30.502Z,1010.31
2018-05-31T02:05:11.072Z,1010.28
2018-05-31T02:05:51.639Z,1010.32
2018-05-31T02:06:32.207Z,1010.3
2018-05-31T02:07:12.784Z,1010.32
2018-05-31T02:07:53.345Z,1010.33
2018-05-31T02:08:33.944Z,1010.31
2018-05-31T02:09:14.523Z,1010.33
2018-05-31T02:09:55.065Z,1010.32
2018-05-31T02:10:35.630Z,1010.37
2018-05-31T02:11:16.190Z,1010.36
2018-05-31T02:11:56.761Z,1010.38
2018-05-31T02:12:37.325Z,1010.37
2018-05-31T02:13:17.892Z,1010.39
2018-05-31T02:13:58.460Z,1010.37
2018-05-31T02:14:39.023Z,1010.35
2018-05-31T02:15:19.590Z,1010.38
2018-05-31T02:16:00.150Z,1010.41
2018-05-31T02:16:40.704Z,1010.36
2018-05-31T02:17:21.278Z,1010.36
2018-05-31T02:18:01.828Z,1010.36
2018-05-31T02:18:42.383Z,1010.36
2018-05-31T02:19:22.950Z,1010.42
2018-05-31T02:20:03.525Z,1010.42
2018-05-31T02:20:44.083Z,1010.42
2018-05-31T02:21:24.657Z,1010.47
2018-05-31T02:22:05.232Z,1010.4
2018-05-31T02:22:45.796Z,1010.42
2018-05-31T02:23:26.374Z,1010.42
2018-05-31T02:24:06.944Z,1010.42
2018-05-31T02:24:47.499Z,1010.42
2018-05-31T02:25:28.056Z,1010.42
2018-05-31T02:26:08.637Z,1010.47
2018-05-31T02:26:49.235Z,1010.4
2018-05-31T02:27:29.788Z,1010.42
2018-05-31T02:28:10.362Z,1010.38
2018-05-31T02:28:50.917Z,1010.44
2018-05-31T02:29:31.475Z,1010.43
2018-05-31T02:30:12.030Z,1010.44
2018-05-31T02:30:52.592Z,1010.44
2018-05-31T02:31:33.156Z,1010.43
2018-05-31T02:32:13.727Z,1010.44
2018-05-31T02:32:54.291Z,1010.46
2018-05-31T02:33:34.872Z,1010.4
2018-05-31T02:34:15.400Z,1010.45
2018-05-31T02:34:55.965Z,1010.45
2018-05-31T02:35:36.519Z,1010.46
2018-05-31T02:36:17.096Z,1010.5
2018-05-31T02:36:57.656Z,1010.52
2018-05-31T02:37:38.238Z,1010.52
2018-05-31T02:38:18.820Z,1010.5
2018-05-31T02:38:59.388Z,1010.5
2018-05-31T02:39:39.938Z,1010.53
2018-05-31T02:40:20.525Z,1010.53
2018-05-31T02:41:01.094Z,1010.55
2018-05-31T02:41:41.670Z,1010.51
2018-05-31T02:42:22.239Z,1010.5
2018-05-31T02:43:02.804Z,1010.54
2018-05-31T02:43:43.369Z,1010.49
2018-05-31T02:44:23.957Z,1010.5
2018-05-31T02:45:04.533Z,1010.51
2018-05-31T02:45:45.092Z,1010.49
2018-05-31T02:46:25.665Z,1010.47
2018-05-31T02:47:06.228Z,1010.48
2018-05-31T02:47:46.797Z,1010.44
2018-05-31T02:48:27.353Z,1010.47
2018-05-31T02:49:07.910Z,1010.46
2018-05-31T02:49:48.480Z,1010.47
2018-05-31T02:50:29.056Z,1010.44
2018-05-31T02:51:09.600Z,1010.4
2018-05-31T02:51:50.200Z,1010.39
2018-05-31T02:52:30.760Z,1010.41
2018-05-31T02:53:11.329Z,1010.44
2018-05-31T02:53:51.883Z,1010.42
2018-05-31T02:54:32.482Z,1010.41
2018-05-31T02:55:13.028Z,1010.4
2018-05-31T02:55:53.588Z,1010.4
2018-05-31T02:56:34.147Z,1010.42
2018-05-31T02:57:14.710Z,1010.42
2018-05-31T02:57:55.283Z,1010.45
2018-05-31T02:58:35.862Z,1010.43
2018-05-31T02:59:16.433Z,1010.48
2018-05-31T02:59:57.006Z,1010.47
2018-05-31T03:00:37.608Z,1010.48
2018-05-31T03:01:18.154Z,1010.49
2018-05-31T03:01:58.724Z,1010.46
2018-05-31T03:02:39.303Z,1010.49
2018-05-31T03:03:19.874Z,1010.48
2018-05-31T03:04:00.436Z,1010.54
2018-05-31T03:04:41.026Z,1010.51
2018-05-31T03:05:21.588Z,1010.51
2018-05-31T03:06:02.148Z,1010.54
2018-05-31T03:06:42.720Z,1010.51
2018-05-31T03:07:23.291Z,1010.53
2018-05-31T03:08:03.847Z,1010.56
2018-05-31T03:08:44.417Z,1010.57
2018-05-31T03:09:24.987Z,1010.6
2018-05-31T03:10:05.557Z,1010.62
2018-05-31T03:10:46.121Z,1010.6
2018-05-31T03:11:26.693Z,1010.57
2018-05-31T03:12:07.242Z,1010.63
2018-05-31T03:12:47.801Z,1010.6
2018-05-31T03:13:28.375Z,1010.6
2018-05-31T03:14:08.911Z,1010.64
2018-05-31T03:14:49.466Z,1010.62
2018-05-31T03:15:30.025Z,1010.66
2018-05-31T03:16:10.616Z,1010.63
2018-05-31T03:16:51.176Z,1010.61
2018-05-31T03:17:31.718Z,1010.62
2018-05-31T03:18:12.285Z,1010.58
2018-05-31T03:18:52.843Z,1010.59
2018-05-31T03:19:33.414Z,1010.59
2018-05-31T03:20:13.978Z,1010.56
2018-05-31T03:20:54.544Z,1010.57
2018-05-31T03:21:35.088Z,1010.61
2018-05-31T03:22:15.655Z,1010.59
2018-05-31T03:22:56.236Z,1010.57
2018-05-31T03:23:36.767Z,1010.59
2018-05-31T03:24:17.315Z,1010.58
2018-05-31T03:24:57.880Z,1010.61
2018-05-31T03:25:38.428Z,1010.57
2018-05-31T03:26:18.989Z,1010.55
2018-05-31T03:26:59.519Z,1010.59
2018-05-31T03:27:40.066Z,1010.6
2018-05-31T03:28:20.648Z,1010.6
2018-05-31T03:29:01.228Z,1010.6
2018-05-31T03:29:41.806Z,1010.6
2018-05-31T03:30:22.366Z,1010.65
2018-05-31T03:31:02.902Z,1010.58
2018-05-31T03:31:43.449Z,1010.59
2018-05-31T03:32:24.038Z,1010.59
2018-05-31T03:33:04.587Z,1010.58
2018-05-31T03:33:45.140Z,1010.57
2018-05-31T03:34:25.717Z,1010.57
2018-05-31T03:35:06.241Z,1010.55
2018-05-31T03:35:46.801Z,1010.59
2018-05-31T03:36:27.361Z,1010.58
2018-05-31T03:37:07.925Z,1010.54
2018-05-31T03:37:48.463Z,1010.55
2018-05-31T03:38:29.007Z,1010.58
2018-05-31T03:39:09.579Z,1010.6
2018-05-31T03:39:50.142Z,1010.51
2018-05-31T03:40:30.723Z,1010.56
2018-05-31T03:41:11.274Z,1010.53
2018-05-31T03:41:51.815Z,1010.53
2018-05-31T03:42:32.394Z,1010.54
2018-05-31T03:43:12.934Z,1010.53
2018-05-31T03:43:53.494Z,1010.55
2018-05-31T03:44:34.029Z,1010.57
2018-05-31T03:45:14.565Z,1010.52
2018-05-31T03:45:55.162Z,1010.51
2018-05-31T03:46:35.709Z,1010.54
2018-05-31T03:47:16.272Z,1010.51
2018-05-31T03:47:56.844Z,1010.5
2018-05-31T03:48:37.389Z,1010.53
2018-05-31T03:49:17.928Z,1010.49
2018-05-31T03:49:58.517Z,1010.54
2018-05-31T03:50:39.100Z,1010.53
2018-05-31T03:51:19.659Z,1010.52
2018-05-31T03:52:00.189Z,1010.56
2018-05-31T03:52:40.772Z,1010.54
2018-05-31T03:53:21.284Z,1010.54
2018-05-31T03:54:02.011Z,1010.57
2018-05-31T03:54:42.617Z,1010.57
2018-05-31T03:55:23.285Z,1010.59
2018-05-31T03:56:03.837Z,1010.57
2018-05-31T03:56:44.384Z,1010.58
2018-05-31T03:57:24.931Z,1010.57
2018-05-31T03:58:05.492Z,1010.54
2018-05-31T03:58:46.042Z,1010.56
2018-05-31T03:59:26.609Z,1010.53
2018-05-31T04:00:07.171Z,1010.6
2018-05-31T04:00:47.742Z,1010.55
2018-05-31T04:01:28.308Z,1010.6
2018-05-31T04:02:08.860Z,1010.59
2018-05-31T04:02:49.404Z,1010.58
2018-05-31T04:03:29.979Z,1010.59
2018-05-31T04:04:10.545Z,1010.62
2018-05-31T04:04:51.119Z,1010.57
2018-05-31T04:05:31.674Z,1010.56
2018-05-31T04:06:12.228Z,1010.55
2018-05-31T04:06:52.790Z,1010.55
2018-05-31T04:07:33.338Z,1010.62
2018-05-31T04:08:13.934Z,1010.55
2018-05-31T04:08:54.475Z,1010.57
2018-05-31T04:09:35.050Z,1010.55
2018-05-31T04:10:15.640Z,1010.61
2018-05-31T04:10:56.257Z,1010.59
2018-05-31T04:11:36.825Z,1010.61
2018-05-31T04:12:17.400Z,1010.53
2018-05-31T04:12:58.016Z,1010.58
2018-05-31T04:13:38.536Z,1010.55
2018-05-31T04:14:19.164Z,1010.57
2018-05-31T04:14:59.650Z,1010.54
2018-05-31T04:15:40.217Z,1010.51
2018-05-31T04:16:20.756Z,1010.56
2018-05-31T04:17:01.326Z,1010.53
2018-05-31T04:17:41.882Z,1010.52
2018-05-31T04:18:22.455Z,1010.58
2018-05-31T04:19:03.034Z,1010.56
2018-05-31T04:19:43.582Z,1010.59
2018-05-31T04:20:24.205Z,1010.6
2018-05-31T04:21:04.851Z,1010.58
2018-05-31T04:21:45.397Z,1010.63
2018-05-31T04:22:25.974Z,1010.59
2018-05-31T04:23:06.565Z,1010.66
2018-05-31T04:23:47.136Z,1010.66
2018-05-31T04:24:27.684Z,1010.64
2018-05-31T04:25:08.266Z,1010.64
2018-05-31T04:25:48.806Z,1010.65
2018-05-31T04:26:29.345Z,1010.64
2018-05-31T04:27:09.896Z,1010.62
2018-05-31T04:27:50.471Z,1010.63
2018-05-31T04:28:31.034Z,1010.61
2018-05-31T04:29:11.580Z,1010.65
2018-05-31T04:29:52.138Z,1010.59
2018-05-31T04:30:32.701Z,1010.6
2018-05-31T04:31:13.311Z,1010.57
2018-05-31T04:31:53.874Z,1010.65
2018-05-31T04:32:34.404Z,1010.63
2018-05-31T04:33:14.979Z,1010.64
2018-05-31T04:33:55.581Z,1010.64
2018-05-31T04:34:36.160Z,1010.64
2018-05-31T04:35:16.722Z,1010.65
2018-05-31T04:35:57.272Z,1010.67
2018-05-31T04:36:37.840Z,1010.61
2018-05-31T04:37:18.354Z,1010.69
2018-05-31T04:37:58.898Z,1010.66
2018-05-31T04:38:39.461Z,1010.67
2018-05-31T04:39:20.002Z,1010.69
2018-05-31T04:40:00.568Z,1010.65
2018-05-31T04:40:41.176Z,1010.71
2018-05-31T04:41:21.759Z,1010.67
2018-05-31T04:42:02.307Z,1010.68
2018-05-31T04:42:42.856Z,1010.7
2018-05-31T04:43:23.415Z,1010.67
2018-05-31T04:44:03.967Z,1010.66
2018-05-31T04:44:44.552Z,1010.73
2018-05-31T04:45:25.110Z,1010.73
2018-05-31T04:46:05.852Z,1010.73
2018-05-31T04:46:46.450Z,1010.74
2018-05-31T04:47:27.283Z,1010.71
2018-05-31T04:48:07.839Z,1010.72
2018-05-31T04:48:48.399Z,1010.7
2018-05-31T04:49:29.024Z,1010.73
2018-05-31T04:50:09.577Z,1010.7
2018-05-31T04:50:50.167Z,1010.66
2018-05-31T04:51:30.728Z,1010.72
2018-05-31T04:52:11.270Z,1010.69
2018-05-31T04:52:51.855Z,1010.74
2018-05-31T04:53:32.502Z,1010.68
2018-05-31T04:54:12.992Z,1010.71
2018-05-31T04:54:53.529Z,1010.67
2018-05-31T04:55:34.090Z,1010.72
2018-05-31T04:56:14.651Z,1010.72
2018-05-31T04:56:55.221Z,1010.73
2018-05-31T04:57:35.761Z,1010.72
2018-05-31T04:58:16.318Z,1010.72
2018-05-31T04:58:56.879Z,1010.71
2018-05-31T04:59:37.444Z,1010.71
2018-05-31T05:00:17.982Z,1010.76
2018-05-31T05:00:58.536Z,1010.7
2018-05-31T05:01:39.098Z,1010.75
2018-05-31T05:02:19.675Z,1010.72
2018-05-31T05:03:00.245Z,1010.72
2018-05-31T05:03:40.823Z,1010.74
2018-05-31T05:04:21.428Z,1010.73
2018-05-31T05:05:01.969Z,1010.75
2018-05-31T05:05:42.534Z,1010.74
2018-05-31T05:06:23.111Z,1010.75
2018-05-31T05:07:03.684Z,1010.74
2018-05-31T05:07:44.261Z,1010.78
2018-05-31T05:08:24.890Z,1010.78
2018-05-31T05:09:05.435Z,1010.78
2018-05-31T05:09:46.017Z,1010.81
2018-05-31T05:10:26.594Z,1010.81
2018-05-31T05:11:07.165Z,1010.79
2018-05-31T05:11:47.738Z,1010.77
2018-05-31T05:12:28.323Z,1010.83
2018-05-31T05:13:08.900Z,1010.81
2018-05-31T05:13:49.442Z,1010.85
2018-05-31T05:14:29.978Z,1010.81
2018-05-31T05:15:10.535Z,1010.8
2018-05-31T05:15:51.115Z,1010.83
2018-05-31T05:16:31.719Z,1010.82
2018-05-31T05:17:12.309Z,1010.85
2018-05-31T05:17:52.866Z,1010.85
2018-05-31T05:18:33.436Z,1010.87
2018-05-31T05:19:14.006Z,1010.84
2018-05-31T05:19:54.567Z,1010.87
2018-05-31T05:20:35.119Z,1010.86
2018-05-31T05:21:15.688Z,1010.86
2018-05-31T05:21:56.285Z,1010.9
2018-05-31T05:22:36.847Z,1010.86
2018-05-31T05:23:17.421Z,1010.91
2018-05-31T05:23:57.965Z,1010.88
2018-05-31T05:24:38.540Z,1010.85
2018-05-31T05:25:19.081Z,1010.87
2018-05-31T05:25:59.636Z,1010.87
2018-05-31T05:26:40.199Z,1010.85
2018-05-31T05:27:20.735Z,1010.87
2018-05-31T05:28:01.287Z,1010.91
2018-05-31T05:28:41.828Z,1010.88
2018-05-31T05:29:22.394Z,1010.84
2018-05-31T05:30:02.956Z,1010.91
2018-05-31T05:30:43.518Z,1010.89
2018-05-31T05:31:24.134Z,1010.92
2018-05-31T05:32:04.701Z,1010.94
2018-05-31T05:32:45.304Z,1010.96
2018-05-31T05:33:25.859Z,1010.97
2018-05-31T05:34:06.468Z,1010.99
2018-05-31T05:34:47.033Z,1010.97
2018-05-31T05:35:27.579Z,1011.03
2018-05-31T05:36:08.287Z,1011.1
2018-05-31T05:36:48.853Z,1011.14
2018-05-31T05:37:29.414Z,1011.18
2018-05-31T05:38:10.006Z,1011.19
2018-05-31T05:38:50.514Z,1011.25
2018-05-31T05:39:31.097Z,1011.25
2018-05-31T05:40:11.766Z,1011.26
2018-05-31T05:40:52.296Z,1011.34
2018-05-31T05:41:32.855Z,1011.35
2018-05-31T05:42:13.431Z,1011.41
2018-05-31T05:42:53.999Z,1011.43
2018-05-31T05:43:34.643Z,1011.52
2018-05-31T05:44:15.146Z,1011.53
2018-05-31T05:44:55.700Z,1011.6
2018-05-31T05:45:36.279Z,1011.61
2018-05-31T05:46:16.860Z,1011.64
2018-05-31T05:46:57.456Z,1011.69
2018-05-31T05:47:38.042Z,1011.75
2018-05-31T05:48:18.624Z,1011.87
2018-05-31T05:48:59.278Z,1011.93
2018-05-31T05:49:39.850Z,1011.94
2018-05-31T05:50:20.396Z,1011.97
2018-05-31T05:51:00.955Z,1012
2018-05-31T05:51:41.516Z,1012.1
2018-05-31T05:52:22.074Z,1012.19
2018-05-31T05:53:02.627Z,1012.19
2018-05-31T05:53:43.180Z,1012.24
2018-05-31T05:54:23.781Z,1012.3
2018-05-31T05:55:04.341Z,1012.33
2018-05-31T05:55:44.928Z,1012.37
2018-05-31T05:56:25.480Z,1012.38
2018-05-31T05:57:06.049Z,1012.36
2018-05-31T05:57:46.619Z,1012.49
2018-05-31T05:58:27.232Z,1012.52
2018-05-31T05:59:07.771Z,1012.54
2018-05-31T05:59:48.340Z,1012.5
2018-05-31T06:00:28.989Z,1012.44
2018-05-31T06:01:09.593Z,1012.37
2018-05-31T06:01:50.198Z,1012.25
2018-05-31T06:02:30.743Z,1012.19
2018-05-31T06:03:11.321Z,1012.17
2018-05-31T06:03:51.970Z,1012.15
2018-05-31T06:04:32.587Z,1012.06
2018-05-31T06:05:13.142Z,1012.06
2018-05-31T06:05:53.708Z,1012.08
2018-05-31T06:06:34.290Z,1012.06
2018-05-31T06:07:14.852Z,1012.11
2018-05-31T06:07:55.416Z,1012.04
2018-05-31T06:08:35.997Z,1012
2018-05-31T06:09:16.558Z,1011.91
2018-05-31T06:09:57.163Z,1011.89
2018-05-31T06:10:37.712Z,1011.99
2018-05-31T06:11:18.277Z,1012.05
2018-05-31T06:11:58.862Z,1012.12
2018-05-31T06:12:39.417Z,1012.14
2018-05-31T06:13:19.987Z,1012.15
2018-05-31T06:14:00.549Z,1012.08
2018-05-31T06:14:41.132Z,1012.08
2018-05-31T06:15:21.675Z,1012.02
2018-05-31T06:16:02.253Z,1012.04
2018-05-31T06:16:42.796Z,1012.06
2018-05-31T06:17:23.364Z,1012.02
2018-05-31T06:18:03.959Z,1011.96
2018-05-31T06:18:44.548Z,1011.93
2018-05-31T06:19:25.128Z,1011.91
2018-05-31T06:20:05.676Z,1011.93
2018-05-31T06:20:46.259Z,1012.05
2018-05-31T06:21:26.831Z,1012.12
2018-05-31T06:22:07.385Z,1012.16
2018-05-31T06:22:47.980Z,1012.14
2018-05-31T06:23:28.549Z,1012.05
2018-05-31T06:24:09.173Z,1012.08
2018-05-31T06:24:49.734Z,1012.12
2018-05-31T06:25:30.350Z,1012.28
2018-05-31T06:26:10.988Z,1012.32
2018-05-31T06:26:51.537Z,1012.3
2018-05-31T06:27:32.103Z,1012.28
2018-05-31T06:28:12.675Z,1012.27
2018-05-31T06:28:53.259Z,1012.34
2018-05-31T06:29:34.111Z,1012.44
2018-05-31T06:30:14.769Z,1012.49
2018-05-31T06:30:55.449Z,1012.46
2018-05-31T06:31:36.030Z,1012.33
2018-05-31T06:32:16.612Z,1012.23
2018-05-31T06:32:57.201Z,1012.25
2018-05-31T06:33:37.803Z,1012.27
2018-05-31T06:34:18.358Z,1012.38
2018-05-31T06:34:59.005Z,1012.38
2018-05-31T06:35:39.581Z,1012.31
2018-05-31T06:36:20.170Z,1012.27
2018-05-31T06:37:00.734Z,1012.23
2018-05-31T06:37:41.343Z,1012.08
2018-05-31T06:38:21.885Z,1011.87
2018-05-31T06:39:02.499Z,1011.76
2018-05-31T06:39:43.108Z,1011.64
2018-05-31T06:40:23.758Z,1011.55
2018-05-31T06:41:04.352Z,1011.53
2018-05-31T06:41:44.928Z,1011.52
2018-05-31T06:42:26.627Z,1011.49
2018-05-31T06:43:07.360Z,1011.43
2018-05-31T06:43:47.931Z,1011.42
2018-05-31T06:44:28.516Z,1011.41
2018-05-31T06:45:09.328Z,1011.38
2018-05-31T06:45:49.966Z,1011.43
2018-05-31T06:46:30.494Z,1011.44
2018-05-31T06:47:11.118Z,1011.43
2018-05-31T06:47:51.703Z,1011.52
2018-05-31T06:48:32.275Z,1011.63
2018-05-31T06:49:12.835Z,1011.82
2018-05-31T06:49:53.428Z,1011.87
2018-05-31T06:50:34.008Z,1011.79
2018-05-31T06:51:14.694Z,1011.64
2018-05-31T06:51:55.281Z,1011.55
2018-05-31T06:52:35.841Z,1011.45
2018-05-31T06:53:16.438Z,1011.46
2018-05-31T06:53:57.043Z,1011.42
2018-05-31T06:54:37.618Z,1011.41
2018-05-31T06:55:18.306Z,1011.42
2018-05-31T06:55:58.844Z,1011.41
2018-05-31T06:56:39.437Z,1011.39
2018-05-31T06:57:20.010Z,1011.39
2018-05-31T06:58:00.599Z,1011.37
2018-05-31T06:58:41.160Z,1011.4
2018-05-31T06:59:21.711Z,1011.39
2018-05-31T07:00:02.286Z,1011.38
2018-05-31T07:00:42.890Z,1011.35
2018-05-31T07:01:23.519Z,1011.41
2018-05-31T07:02:04.109Z,1011.4
2018-05-31T07:02:44.700Z,1011.41
2018-05-31T07:03:25.275Z,1011.39
2018-05-31T07:04:06.550Z,1011.39
2018-05-31T07:04:47.142Z,1011.42
2018-05-31T07:05:27.720Z,1011.4
2018-05-31T07:06:08.302Z,1011.45
2018-05-31T07:06:48.869Z,1011.5
2018-05-31T07:07:29.447Z,1011.55
2018-05-31T07:08:10.138Z,1011.65
2018-05-31T07:08:50.711Z,1011.69
2018-05-31T07:09:31.323Z,1011.58
2018-05-31T07:10:11.894Z,1011.48
2018-05-31T07:10:52.509Z,1011.45
2018-05-31T07:11:33.090Z,1011.43
2018-05-31T07:12:13.709Z,1011.43
2018-05-31T07:12:54.303Z,1011.42
2018-05-31T07:13:34.888Z,1011.46
2018-05-31T07:14:15.459Z,1011.46
2018-05-31T07:14:56.042Z,1011.47
2018-05-31T07:15:36.597Z,1011.46
2018-05-31T07:16:17.198Z,1011.47
2018-05-31T07:16:57.919Z,1011.53
2018-05-31T07:17:38.523Z,1011.54
2018-05-31T07:18:19.116Z,1011.53
2018-05-31T07:18:59.727Z,1011.53
2018-05-31T07:19:40.371Z,1011.56
2018-05-31T07:20:21.062Z,1011.55
2018-05-31T07:21:01.669Z,1011.57
2018-05-31T07:21:42.285Z,1011.59
2018-05-31T07:22:22.806Z,1011.59
2018-05-31T07:23:03.373Z,1011.6
2018-05-31T07:23:43.961Z,1011.56
2018-05-31T07:24:24.920Z,1011.57
2018-05-31T07:25:05.582Z,1011.55
2018-05-31T07:25:46.227Z,1011.56
2018-05-31T07:26:26.830Z,1011.51
2018-05-31T07:27:07.435Z,1011.5
2018-05-31T07:27:47.994Z,1011.46
2018-05-31T07:28:28.667Z,1011.51
2018-05-31T07:29:09.183Z,1011.49
2018-05-31T07:29:49.769Z,1011.48
2018-05-31T07:30:30.398Z,1011.49
2018-05-31T07:31:10.968Z,1011.48
2018-05-31T07:31:51.584Z,1011.46
2018-05-31T07:32:32.136Z,1011.5
2018-05-31T07:33:12.711Z,1011.53
2018-05-31T07:33:53.285Z,1011.48
2018-05-31T07:34:33.883Z,1011.46
2018-05-31T07:35:14.513Z,1011.45
2018-05-31T07:35:55.090Z,1011.46
2018-05-31T07:36:35.646Z,1011.44
2018-05-31T07:37:16.217Z,1011.43
2018-05-31T07:37:56.842Z,1011.43
2018-05-31T07:38:37.414Z,1011.44
2018-05-31T07:39:17.994Z,1011.47
2018-05-31T07:39:58.550Z,1011.44
2018-05-31T07:40:39.143Z,1011.42
2018-05-31T07:41:19.697Z,1011.46
2018-05-31T07:42:00.273Z,1011.42
2018-05-31T07:42:40.860Z,1011.45
2018-05-31T07:43:21.417Z,1011.46
2018-05-31T07:44:02.023Z,1011.46
2018-05-31T07:44:42.584Z,1011.47
2018-05-31T07:45:23.160Z,1011.46
2018-05-31T07:46:03.724Z,1011.46
2018-05-31T07:46:44.280Z,1011.46
2018-05-31T07:47:24.843Z,1011.43
2018-05-31T07:48:05.420Z,1011.45
2018-05-31T07:48:45.993Z,1011.47
2018-05-31T07:49:26.595Z,1011.43
2018-05-31T07:50:07.172Z,1011.42
2018-05-31T07:50:47.760Z,1011.43
2018-05-31T07:51:28.333Z,1011.44
2018-05-31T07:52:08.880Z,1011.49
2018-05-31T07:52:49.463Z,1011.46
2018-05-31T07:53:30.039Z,1011.42
2018-05-31T07:54:10.628Z,1011.47
2018-05-31T07:54:51.202Z,1011.45
2018-05-31T07:55:31.856Z,1011.46
2018-05-31T07:56:12.433Z,1011.44
2018-05-31T07:56:52.987Z,1011.48
2018-05-31T07:57:33.576Z,1011.49
2018-05-31T07:58:14.203Z,1011.46
2018-05-31T07:58:54.746Z,1011.49
2018-05-31T07:59:35.311Z,1011.49
2018-05-31T08:00:15.877Z,1011.49
2018-05-31T08:00:56.465Z,1011.46
2018-05-31T08:01:37.201Z,1011.45
2018-05-31T08:02:17.614Z,1011.45
2018-05-31T08:02:58.210Z,1011.46
2018-05-31T08:03:38.793Z,1011.45
2018-05-31T08:04:19.360Z,1011.44
2018-05-31T08:04:59.923Z,1011.45
2018-05-31T08:05:40.489Z,1011.43
2018-05-31T08:06:21.054Z,1011.41
2018-05-31T08:07:01.645Z,1011.46
2018-05-31T08:07:42.288Z,1011.48
2018-05-31T08:08:22.853Z,1011.43
2018-05-31T08:09:03.444Z,1011.42
2018-05-31T08:09:44.022Z,1011.47
2018-05-31T08:10:24.600Z,1011.39
2018-05-31T08:11:05.196Z,1011.51
2018-05-31T08:11:45.786Z,1011.49
2018-05-31T08:12:26.338Z,1011.47